createdAt,value
2022-11-03T00:02:08.314Z,9.20
2022-11-03T00:04:38.836Z,8.50
2022-11-03T00:09:40.797Z,9.40
2022-11-03T00:14:38.239Z,8.80
2022-11-03T00:19:33.263Z,10.00
2022-11-03T00:22:00.586Z,9.90
2022-11-03T00:26:57.443Z,8.40
2022-11-03T00:29:27.298Z,8.70
2022-11-03T00:31:54.486Z,9.40
2022-11-03T00:34:21.406Z,8.60
2022-11-03T00:36:48.615Z,8.70
2022-11-03T00:39:16.114Z,8.80
2022-11-03T00:46:40.577Z,9.60
2022-11-03T00:49:07.917Z,8.80
2022-11-03T00:51:36.067Z,9.30
2022-11-03T00:54:05.307Z,8.80
2022-11-03T00:56:35.120Z,8.80
2022-11-03T00:59:04.877Z,8.80
2022-11-03T01:01:47.722Z,9.10
2022-11-03T01:04:35.676Z,8.40
2022-11-03T01:07:04.193Z,8.90
2022-11-03T01:09:35.688Z,8.80
2022-11-03T01:12:08.894Z,10.10
2022-11-03T01:17:06.354Z,8.80
2022-11-03T01:19:33.573Z,8.80
2022-11-03T01:24:32.147Z,8.70
2022-11-03T01:26:59.442Z,8.70
2022-11-03T01:29:26.832Z,8.70
2022-11-03T01:31:54.145Z,8.70
2022-11-03T01:34:22.736Z,10.00
2022-11-03T01:39:19.162Z,8.70
2022-11-03T01:41:49.198Z,9.80
2022-11-03T01:44:16.268Z,8.70
2022-11-03T01:47:05.200Z,9.20
2022-11-03T01:49:39.355Z,8.70
2022-11-03T01:52:28.018Z,8.70
2022-11-03T01:55:00.238Z,8.70
2022-11-03T01:57:41.394Z,8.70
2022-11-03T02:00:09.546Z,9.20
2022-11-03T02:02:43.598Z,8.80
2022-11-03T02:05:12.841Z,8.80
2022-11-03T02:10:48.618Z,8.40
2022-11-03T02:13:23.358Z,12.50
2022-11-03T02:15:56.999Z,8.80
2022-11-03T02:18:30.507Z,6.90
2022-11-03T02:21:26.967Z,8.20
2022-11-03T02:23:54.138Z,8.80
2022-11-03T02:26:21.852Z,8.80
2022-11-03T02:28:49.309Z,9.10
2022-11-03T02:31:41.440Z,9.00
2022-11-03T02:34:10.747Z,8.80
2022-11-03T02:36:50.142Z,8.60
2022-11-03T02:39:29.071Z,8.90
2022-11-03T02:41:58.964Z,8.80
2022-11-03T02:44:27.554Z,8.80
2022-11-03T02:46:58.367Z,9.80
2022-11-03T02:49:25.726Z,8.90
2022-11-03T02:52:00.491Z,10.10
2022-11-03T02:54:34.970Z,8.90
2022-11-03T02:57:25.435Z,9.60
2022-11-03T03:02:36.276Z,8.90
2022-11-03T03:05:08.791Z,8.90
2022-11-03T03:07:39.928Z,8.90
2022-11-03T03:10:20.843Z,8.90
2022-11-03T03:12:59.240Z,8.90
2022-11-03T03:15:58.115Z,10.00
2022-11-03T03:18:36.847Z,8.90
2022-11-03T03:21:12.898Z,9.00
2022-11-03T03:23:49.927Z,9.90
2022-11-03T03:26:41.308Z,9.00
2022-11-03T03:29:19.191Z,9.90
2022-11-03T03:31:51.557Z,9.10
2022-11-03T03:34:34.720Z,8.90
2022-11-03T03:37:05.097Z,9.80
2022-11-03T03:39:36.136Z,9.50
2022-11-03T03:42:05.621Z,10.20
2022-11-03T03:44:34.138Z,10.40
2022-11-03T03:47:07.028Z,9.60
2022-11-03T03:52:04.273Z,8.80
2022-11-03T03:54:31.689Z,8.80
2022-11-03T03:57:02.997Z,9.50
2022-11-03T03:59:30.625Z,8.70
2022-11-03T04:01:59.260Z,10.00
2022-11-03T04:04:26.875Z,8.70
2022-11-03T04:07:14.130Z,7.00
2022-11-03T04:15:15.924Z,8.00
2022-11-03T04:18:05.118Z,9.60
2022-11-03T04:20:52.048Z,8.00
2022-11-03T04:23:19.531Z,8.60
2022-11-03T04:25:53.320Z,8.70
2022-11-03T04:28:20.892Z,8.70
2022-11-03T04:30:48.121Z,8.40
2022-11-03T04:33:17.859Z,8.40
2022-11-03T04:35:46.345Z,6.90
2022-11-03T04:38:16.232Z,8.40
2022-11-03T04:40:46.223Z,8.40
2022-11-03T04:43:17.280Z,8.30
2022-11-03T04:45:46.221Z,8.90
2022-11-03T04:48:24.352Z,8.90
2022-11-03T04:50:58.091Z,8.20
2022-11-03T04:53:33.295Z,8.10
2022-11-03T04:56:06.125Z,8.50
2022-11-03T04:58:35.966Z,8.70
2022-11-03T05:01:04.302Z,8.20
2022-11-03T05:03:34.347Z,8.00
2022-11-03T05:06:17.938Z,8.00
2022-11-03T05:08:48.374Z,7.60
2022-11-03T05:11:32.395Z,8.60
2022-11-03T05:14:03.484Z,8.00
2022-11-03T05:16:32.713Z,7.90
2022-11-03T05:19:00.717Z,7.90
2022-11-03T05:21:28.425Z,6.40
2022-11-03T05:24:11.778Z,8.00
2022-11-03T05:29:18.937Z,7.90
2022-11-03T05:31:48.610Z,7.90
2022-11-03T05:34:30.975Z,8.80
2022-11-03T05:37:24.949Z,7.90
2022-11-03T05:40:04.991Z,7.90
2022-11-03T05:42:36.491Z,7.90
2022-11-03T05:45:14.462Z,7.90
2022-11-03T05:50:34.988Z,7.90
2022-11-03T05:53:27.444Z,8.00
2022-11-03T05:55:56.891Z,8.00
2022-11-03T05:58:37.514Z,7.90
2022-11-03T06:01:13.206Z,8.00
2022-11-03T06:03:43.221Z,8.00
2022-11-03T06:06:19.693Z,8.20
2022-11-03T06:08:47.867Z,8.00
2022-11-03T06:11:48.598Z,8.20
2022-11-03T06:14:24.853Z,7.80
2022-11-03T06:17:11.838Z,9.50
2022-11-03T06:19:41.497Z,8.00
2022-11-03T06:22:18.324Z,8.10
2022-11-03T06:27:22.924Z,8.00
2022-11-03T06:30:24.213Z,9.20
2022-11-03T06:32:59.297Z,8.30
2022-11-03T06:35:29.116Z,8.80
2022-11-03T06:38:00.105Z,8.10
2022-11-03T06:40:36.343Z,8.10
2022-11-03T06:43:16.732Z,8.60
2022-11-03T06:45:51.047Z,8.80
2022-11-03T06:48:25.911Z,8.20
2022-11-03T06:50:56.705Z,9.50
2022-11-03T06:53:27.537Z,8.20
2022-11-03T06:55:55.489Z,9.50
2022-11-03T06:58:33.269Z,8.30
2022-11-03T07:01:14.912Z,8.30
2022-11-03T07:03:42.456Z,7.60
2022-11-03T07:06:19.457Z,8.20
2022-11-03T07:08:49.890Z,8.40
2022-11-03T07:11:20.678Z,8.80
2022-11-03T07:13:55.769Z,8.50
2022-11-03T07:16:33.505Z,9.30
2022-11-03T07:19:03.862Z,8.60
2022-11-03T07:21:31.218Z,8.60
2022-11-03T07:24:01.521Z,9.10
2022-11-03T07:26:29.031Z,8.60
2022-11-03T07:31:26.287Z,9.00
2022-11-03T07:33:59.807Z,8.80
2022-11-03T07:36:30.485Z,8.90
2022-11-03T07:39:01.794Z,9.00
2022-11-03T07:41:34.335Z,9.90
2022-11-03T07:44:02.497Z,9.00
2022-11-03T07:46:29.991Z,9.70
2022-11-03T07:48:58.969Z,9.10
2022-11-03T07:51:35.033Z,9.20
2022-11-03T07:54:26.961Z,8.50
2022-11-03T07:56:53.995Z,9.60
2022-11-03T07:59:45.380Z,9.40
2022-11-03T08:02:21.553Z,9.40
2022-11-03T08:04:50.110Z,8.00
2022-11-03T08:24:33.843Z,9.80
2022-11-03T08:27:01.047Z,9.90
2022-11-03T08:29:29.551Z,9.70
2022-11-03T08:31:56.715Z,9.80
2022-11-03T08:34:24.130Z,9.80
2022-11-03T08:36:54.068Z,11.10
2022-11-03T08:39:28.817Z,9.90
2022-11-03T08:41:56.110Z,10.60
2022-11-03T08:46:54.254Z,10.00
2022-11-03T08:49:23.850Z,10.70
2022-11-03T08:51:51.205Z,11.50
2022-11-03T08:54:18.738Z,10.10
2022-11-03T08:56:48.873Z,10.50
2022-11-03T09:01:59.047Z,11.00
2022-11-03T09:04:43.903Z,11.70
2022-11-03T09:12:26.331Z,10.20
2022-11-03T09:14:53.758Z,10.90
2022-11-03T09:19:50.736Z,9.80
2022-11-03T09:22:19.795Z,11.60
2022-11-03T09:24:49.456Z,10.70
2022-11-03T09:27:16.631Z,11.90
2022-11-03T09:30:10.944Z,10.90
2022-11-03T09:32:33.576Z,11.20
2022-11-03T09:35:06.132Z,11.50
2022-11-03T09:37:33.667Z,12.80
2022-11-03T09:40:03.174Z,12.80
2022-11-03T09:42:48.674Z,13.20
2022-11-03T09:45:26.826Z,13.90
2022-11-03T09:47:54.251Z,13.00
2022-11-03T09:50:21.928Z,13.40
2022-11-03T09:52:55.365Z,14.00
2022-11-03T09:59:23.055Z,12.40
2022-11-03T10:01:53.416Z,13.70
2022-11-03T10:04:28.395Z,13.60
2022-11-03T10:07:41.957Z,13.00
2022-11-03T10:10:03.513Z,12.90
2022-11-03T10:12:38.215Z,12.40
2022-11-03T10:15:12.177Z,12.70
2022-11-03T10:17:46.738Z,12.40
2022-11-03T10:20:19.299Z,16.40
2022-11-03T10:22:54.282Z,11.70
2022-11-03T10:25:30.121Z,12.10
2022-11-03T10:28:22.130Z,12.10
2022-11-03T10:31:10.704Z,12.30
2022-11-03T10:33:43.147Z,11.90
2022-11-03T10:36:21.960Z,12.80
2022-11-03T10:39:29.192Z,10.90
2022-11-03T10:42:03.250Z,11.70
2022-11-03T10:44:31.250Z,11.70
2022-11-03T10:49:30.268Z,12.00
2022-11-03T10:52:21.241Z,11.70
2022-11-03T10:54:50.209Z,11.80
2022-11-03T10:57:20.294Z,13.30
2022-11-03T10:59:49.668Z,12.20
2022-11-03T11:02:25.713Z,12.30
2022-11-03T11:05:00.860Z,12.30
2022-11-03T11:07:39.429Z,12.10
2022-11-03T11:10:12.021Z,13.60
2022-11-03T11:15:41.971Z,12.40
2022-11-03T11:20:41.625Z,12.60
2022-11-03T11:23:35.211Z,11.70
2022-11-03T11:26:11.312Z,13.20
2022-11-03T11:28:42.312Z,12.60
2022-11-03T11:31:28.019Z,12.60
2022-11-03T11:34:10.440Z,12.70
2022-11-03T11:36:42.093Z,12.80
2022-11-03T11:39:24.921Z,13.30
2022-11-03T11:42:16.186Z,13.80
2022-11-03T11:44:43.443Z,13.20
2022-11-03T11:47:35.505Z,12.90
2022-11-03T11:50:11.720Z,12.90
2022-11-03T11:52:43.182Z,13.00
2022-11-03T11:55:28.649Z,13.00
2022-11-03T11:57:56.937Z,13.10
2022-11-03T12:00:26.303Z,13.10
2022-11-03T12:02:54.344Z,13.20
2022-11-03T12:05:28.596Z,13.30
2022-11-03T12:07:58.701Z,13.70
2022-11-03T12:10:36.453Z,11.50
2022-11-03T12:13:47.562Z,13.20
2022-11-03T12:16:39.625Z,13.10
2022-11-03T12:19:44.967Z,13.10
2022-11-03T12:22:38.106Z,13.10
2022-11-03T12:25:08.456Z,12.80
2022-11-03T12:28:01.186Z,13.00
2022-11-03T12:30:28.492Z,13.10
2022-11-03T12:32:57.545Z,12.90
2022-11-03T12:37:52.520Z,12.80
2022-11-03T12:40:20.054Z,12.80
2022-11-03T12:45:18.864Z,12.80
2022-11-03T12:47:46.234Z,14.20
2022-11-03T12:50:13.768Z,14.20
2022-11-03T12:55:09.004Z,12.90
2022-11-03T12:57:42.709Z,12.70
2022-11-03T13:00:17.605Z,12.90
2022-11-03T13:02:48.149Z,12.80
2022-11-03T13:05:19.657Z,12.40
2022-11-03T13:08:14.022Z,14.20
2022-11-03T13:11:34.762Z,12.30
2022-11-03T13:14:04.294Z,12.80
2022-11-03T13:16:32.279Z,14.20
2022-11-03T13:19:23.472Z,14.30
2022-11-03T13:21:50.708Z,12.90
2022-11-03T13:24:43.445Z,11.00
2022-11-03T13:27:10.513Z,12.70
2022-11-03T13:29:43.009Z,14.20
2022-11-03T13:32:10.431Z,12.70
2022-11-03T13:37:05.391Z,12.60
2022-11-03T13:39:33.061Z,12.70
2022-11-03T13:42:01.450Z,12.00
2022-11-03T13:44:28.780Z,12.70
2022-11-03T13:46:56.116Z,13.60
2022-11-03T13:52:13.545Z,12.70
2022-11-03T14:00:16.995Z,13.60
2022-11-03T14:05:31.999Z,12.80
2022-11-03T14:08:01.698Z,12.70
2022-11-03T14:10:29.805Z,12.60
2022-11-03T14:12:56.992Z,17.20
2022-11-03T14:15:24.502Z,13.40
2022-11-03T14:17:52.060Z,12.70
2022-11-03T14:20:20.275Z,12.70
2022-11-03T14:22:47.560Z,12.60
2022-11-03T14:25:15.463Z,12.60
2022-11-03T14:28:08.165Z,11.10
2022-11-03T14:30:35.521Z,12.50
2022-11-03T14:33:02.689Z,12.40
2022-11-03T14:37:57.390Z,12.40
2022-11-03T14:40:44.154Z,12.30
2022-11-03T14:43:15.693Z,12.40
2022-11-03T14:45:43.199Z,12.40
2022-11-03T14:48:10.618Z,12.40
2022-11-03T14:53:05.813Z,12.30
2022-11-03T14:55:33.042Z,12.50
2022-11-03T14:58:00.328Z,11.20
2022-11-03T15:00:27.498Z,12.20
2022-11-03T15:05:41.584Z,12.40
2022-11-03T15:08:09.070Z,12.10
2022-11-03T15:10:36.556Z,12.00
2022-11-03T15:13:03.949Z,12.00
2022-11-03T15:15:31.374Z,12.00
2022-11-03T15:18:02.678Z,11.90
2022-11-03T15:20:31.116Z,11.90
2022-11-03T15:25:45.839Z,11.90
2022-11-03T15:28:13.570Z,11.80
2022-11-03T15:30:40.962Z,13.00
2022-11-03T15:33:08.319Z,11.80
2022-11-03T15:35:35.609Z,13.20
2022-11-03T15:38:02.943Z,10.80
2022-11-03T15:40:30.462Z,11.60
2022-11-03T15:43:02.675Z,11.60
2022-11-03T15:45:30.526Z,11.60
2022-11-03T15:47:58.615Z,11.60
2022-11-03T15:50:26.920Z,12.00
2022-11-03T15:52:55.086Z,11.80
2022-11-03T15:55:22.866Z,12.60
2022-11-03T15:57:50.413Z,11.50
2022-11-03T16:00:20.956Z,12.50
2022-11-03T16:02:48.251Z,12.20
2022-11-03T16:05:17.719Z,11.50
2022-11-03T16:07:56.888Z,9.20
2022-11-03T16:10:29.552Z,12.00
2022-11-03T16:12:57.328Z,11.00
2022-11-03T16:15:26.640Z,11.80
2022-11-03T16:17:54.180Z,14.10
2022-11-03T16:20:21.351Z,9.30
2022-11-03T16:22:48.768Z,11.50
2022-11-03T16:25:19.141Z,11.60
2022-11-03T16:27:47.795Z,11.00
2022-11-03T16:30:14.935Z,11.40
2022-11-03T16:32:42.332Z,11.50
2022-11-03T16:35:10.080Z,11.60
2022-11-03T16:40:05.889Z,11.40
2022-11-03T16:42:38.253Z,11.40
2022-11-03T16:45:17.466Z,12.80
2022-11-03T16:47:45.616Z,12.80
2022-11-03T16:50:13.482Z,12.30
2022-11-03T16:52:40.590Z,11.30
2022-11-03T16:55:09.450Z,12.40
2022-11-03T16:57:36.437Z,11.30
2022-11-03T17:00:06.190Z,12.50
2022-11-03T17:05:01.167Z,10.70
2022-11-03T17:07:29.651Z,11.20
2022-11-03T17:09:57.452Z,11.20
2022-11-03T17:12:25.274Z,12.10
2022-11-03T17:14:55.680Z,12.30
2022-11-03T17:17:24.831Z,11.40
2022-11-03T17:19:52.046Z,12.30
2022-11-03T17:22:21.365Z,12.70
2022-11-03T17:24:49.025Z,10.10
2022-11-03T17:27:21.581Z,12.50
2022-11-03T17:29:52.013Z,11.10
2022-11-03T17:32:37.384Z,12.10
2022-11-03T17:35:18.168Z,11.20
2022-11-03T17:37:45.552Z,11.10
2022-11-03T17:40:18.332Z,11.30
2022-11-03T17:42:46.007Z,11.40
2022-11-03T17:45:14.956Z,11.10
2022-11-03T17:47:42.909Z,12.00
2022-11-03T17:50:21.321Z,11.00
2022-11-03T17:52:50.529Z,12.10
2022-11-03T17:55:21.095Z,11.20
2022-11-03T17:57:48.943Z,11.60
2022-11-03T18:00:18.094Z,11.00
2022-11-03T18:02:45.521Z,11.00
2022-11-03T18:05:21.528Z,11.00
2022-11-03T18:08:00.222Z,11.00
2022-11-03T18:10:33.885Z,10.80
2022-11-03T18:13:18.532Z,12.00
2022-11-03T18:15:47.656Z,10.50
2022-11-03T18:18:26.378Z,10.40
2022-11-03T18:20:54.644Z,10.40
2022-11-03T18:23:35.557Z,11.00
2022-11-03T18:26:09.788Z,11.00
2022-11-03T18:28:36.980Z,10.80
2022-11-03T18:31:06.009Z,11.80
2022-11-03T18:33:35.656Z,11.50
2022-11-03T18:36:06.220Z,12.30
2022-11-03T18:38:36.372Z,11.00
2022-11-03T18:41:23.828Z,10.50
2022-11-03T18:43:51.181Z,10.90
2022-11-03T18:46:18.264Z,11.80
2022-11-03T18:48:45.297Z,11.60
2022-11-03T18:51:12.614Z,10.90
2022-11-03T18:53:39.916Z,11.50
2022-11-03T18:56:13.384Z,12.10
2022-11-03T19:01:10.290Z,10.90
2022-11-03T19:03:38.309Z,11.40
2022-11-03T19:06:05.969Z,11.80
2022-11-03T19:08:33.836Z,12.40
2022-11-03T19:13:41.141Z,10.80
2022-11-03T19:16:28.646Z,10.80
2022-11-03T19:18:56.214Z,11.70
2022-11-03T19:21:27.550Z,10.80
2022-11-03T19:23:58.301Z,11.00
2022-11-03T19:26:35.790Z,10.10
2022-11-03T19:29:12.455Z,12.10
2022-11-03T19:31:44.809Z,9.20
2022-11-03T19:34:15.562Z,10.80
2022-11-03T19:36:43.828Z,9.60
2022-11-03T19:39:26.621Z,11.50
2022-11-03T19:44:45.989Z,10.90
2022-11-03T19:47:19.188Z,10.60
2022-11-03T19:49:56.208Z,10.80
2022-11-03T19:52:29.424Z,12.00
2022-11-03T19:54:58.498Z,10.50
2022-11-03T20:02:28.126Z,10.40
2022-11-03T20:04:55.908Z,10.40
2022-11-03T20:07:25.558Z,9.90
2022-11-03T20:15:21.333Z,11.60
2022-11-03T20:17:49.712Z,10.50
2022-11-03T20:20:20.894Z,10.40
2022-11-03T20:22:51.363Z,10.40
2022-11-03T20:25:33.245Z,11.80
2022-11-03T20:28:17.517Z,10.50
2022-11-03T20:33:17.997Z,10.30
2022-11-03T20:35:46.201Z,10.30
2022-11-03T20:38:16.705Z,11.20
2022-11-03T20:40:43.974Z,8.10
2022-11-03T20:43:25.436Z,9.30
2022-11-03T20:45:55.643Z,10.70
2022-11-03T20:48:23.377Z,10.00
2022-11-03T20:50:56.594Z,11.90
2022-11-03T20:53:25.664Z,11.00
2022-11-03T20:55:53.658Z,10.40
2022-11-03T20:58:22.217Z,10.10
2022-11-03T21:00:52.583Z,10.10
2022-11-03T21:03:53.507Z,10.10
2022-11-03T21:06:18.325Z,10.10
2022-11-03T21:08:47.013Z,10.10
2022-11-03T21:11:24.637Z,10.10
2022-11-03T21:13:52.977Z,11.60
2022-11-03T21:19:41.140Z,10.20
2022-11-03T21:22:45.788Z,10.20
2022-11-03T21:25:20.618Z,10.20
2022-11-03T21:27:49.694Z,10.70
2022-11-03T21:30:17.841Z,11.60
2022-11-03T21:32:45.069Z,8.60
2022-11-03T21:35:16.039Z,10.20
2022-11-03T21:37:43.311Z,10.90
2022-11-03T21:40:11.525Z,9.80
2022-11-03T21:42:57.702Z,9.30
2022-11-03T21:45:27.406Z,10.30
2022-11-03T21:48:14.607Z,10.30
2022-11-03T21:50:42.930Z,9.80
2022-11-03T21:58:06.447Z,10.40
2022-11-03T22:00:37.584Z,10.40
2022-11-03T22:03:06.112Z,10.40
2022-11-03T22:08:03.502Z,10.30
2022-11-03T22:18:17.444Z,10.40
2022-11-03T22:21:03.212Z,9.70
2022-11-03T22:26:42.376Z,10.40
2022-11-03T22:29:47.954Z,11.00
2022-11-03T22:32:15.081Z,10.40
2022-11-03T22:35:01.085Z,8.80
2022-11-03T22:40:14.231Z,10.50
2022-11-03T22:42:59.953Z,11.30
2022-11-03T22:45:46.028Z,11.50
2022-11-03T22:48:13.312Z,10.60
2022-11-03T22:50:40.581Z,10.60
2022-11-03T22:55:55.317Z,10.50
2022-11-03T23:03:31.244Z,10.60
2022-11-03T23:06:06.452Z,10.90
2022-11-03T23:08:35.328Z,10.60
2022-11-03T23:11:16.185Z,10.50
2022-11-03T23:13:45.041Z,9.40
2022-11-03T23:16:17.535Z,11.50
2022-11-03T23:19:05.590Z,10.30
2022-11-03T23:21:34.233Z,11.10
2022-11-03T23:24:22.621Z,10.70
2022-11-03T23:26:50.035Z,10.60
2022-11-03T23:29:19.804Z,12.00
2022-11-03T23:34:14.695Z,10.60
2022-11-03T23:36:42.113Z,10.60
2022-11-03T23:39:13.528Z,10.80
2022-11-03T23:41:41.940Z,11.40
2022-11-03T23:44:10.874Z,10.70
2022-11-03T23:46:56.794Z,10.70
2022-11-03T23:49:23.836Z,10.70
2022-11-03T23:51:53.137Z,10.60
2022-11-03T23:54:20.334Z,10.50
2022-11-03T23:57:06.896Z,10.50
2022-11-03T23:59:34.950Z,10.50
